createdAt,value
2019-01-18T00:02:07.951Z,100735.05
2019-01-18T00:04:38.392Z,100743.55
2019-01-18T00:07:27.984Z,100752.09
2019-01-18T00:10:17.629Z,100744.41
2019-01-18T00:12:48.674Z,100740.61
2019-01-18T00:15:20.470Z,100745.73
2019-01-18T00:17:51.364Z,100747.06
2019-01-18T00:20:21.839Z,100753.01
2019-01-18T00:22:54.033Z,100753.05
2019-01-18T00:25:44.489Z,100755.62
2019-01-18T00:31:43.324Z,100763.34
2019-01-18T00:34:33.724Z,100773.18
2019-01-18T00:37:24.867Z,100775.28
2019-01-18T00:40:06.962Z,100782.51
2019-01-18T00:42:37.709Z,100780.36
2019-01-18T00:45:11.783Z,100785.48
2019-01-18T00:47:42.525Z,100788.45
2019-01-18T00:50:15.432Z,100793.08
2019-01-18T00:52:45.937Z,100797.02
2019-01-18T00:55:16.467Z,100798.28
2019-01-18T00:57:47.034Z,100795.69
2019-01-18T01:00:21.924Z,100797.41
2019-01-18T01:02:52.815Z,100801.30
2019-01-18T01:05:23.642Z,100807.66
2019-01-18T01:07:54.131Z,100815.34
2019-01-18T01:10:24.764Z,100817.50
2019-01-18T01:12:55.505Z,100817.41
2019-01-18T01:15:26.154Z,100828.14
2019-01-18T01:17:56.611Z,100831.95
2019-01-18T01:20:26.988Z,100835.78
2019-01-18T01:22:57.743Z,100841.27
2019-01-18T01:25:28.184Z,100843.83
2019-01-18T01:27:58.615Z,100848.95
2019-01-18T01:30:29.119Z,100852.74
2019-01-18T01:32:59.581Z,100855.69
2019-01-18T01:35:30.047Z,100859.90
2019-01-18T01:38:00.495Z,100862.85
2019-01-18T01:40:31.052Z,100869.20
2019-01-18T01:43:01.938Z,100877.74
2019-01-18T01:45:32.417Z,100878.92
2019-01-18T01:48:02.848Z,100887.45
2019-01-18T01:50:33.228Z,100894.27
2019-01-18T01:53:03.697Z,100893.80
2019-01-18T01:55:34.173Z,100899.38
2019-01-18T01:58:05.540Z,100903.16
2019-01-18T02:00:36.000Z,100907.00
2019-01-18T02:03:06.510Z,100913.75
2019-01-18T02:05:36.958Z,100914.16
2019-01-18T02:08:07.423Z,100919.69
2019-01-18T02:10:38.031Z,100924.00
2019-01-18T02:13:09.012Z,100926.14
2019-01-18T02:15:39.738Z,100928.17
2019-01-18T02:18:10.162Z,100927.38
2019-01-18T02:20:40.598Z,100930.77
2019-01-18T02:23:11.069Z,100935.03
2019-01-18T02:25:41.830Z,100941.45
2019-01-18T02:28:12.537Z,100941.10
2019-01-18T02:30:44.782Z,100947.95
2019-01-18T02:33:15.244Z,100948.30
2019-01-18T02:35:45.623Z,100959.89
2019-01-18T02:38:16.085Z,100958.95
2019-01-18T02:40:46.497Z,100965.34
2019-01-18T02:43:17.259Z,100968.77
2019-01-18T02:45:48.189Z,100973.35
2019-01-18T02:48:18.889Z,100978.41
2019-01-18T02:50:49.325Z,100980.95
2019-01-18T02:53:19.924Z,100986.88
2019-01-18T02:55:50.288Z,100985.98
2019-01-18T02:58:20.592Z,100996.17
2019-01-18T03:00:51.076Z,100997.90
2019-01-18T03:03:21.685Z,100992.78
2019-01-18T03:05:52.184Z,100998.17
2019-01-18T03:08:22.818Z,101004.17
2019-01-18T03:10:53.269Z,101008.33
2019-01-18T03:13:23.887Z,101007.43
2019-01-18T03:15:54.272Z,101013.36
2019-01-18T03:18:24.637Z,101014.66
2019-01-18T03:20:55.061Z,101019.73
2019-01-18T03:23:25.475Z,101021.02
2019-01-18T03:25:56.120Z,101019.33
2019-01-18T03:28:26.522Z,101027.03
2019-01-18T03:30:56.795Z,101031.28
2019-01-18T03:33:27.461Z,101034.61
2019-01-18T03:35:57.925Z,101037.97
2019-01-18T03:38:28.897Z,101051.72
2019-01-18T03:40:59.356Z,101061.06
2019-01-18T03:43:29.865Z,101066.66
2019-01-18T03:46:00.653Z,101066.99
2019-01-18T03:48:31.156Z,101074.17
2019-01-18T03:51:01.869Z,101077.62
2019-01-18T03:53:32.357Z,101082.62
2019-01-18T03:56:03.004Z,101091.01
2019-01-18T03:58:33.757Z,101094.27
2019-01-18T04:01:04.583Z,101097.70
2019-01-18T04:03:35.360Z,101097.24
2019-01-18T04:06:05.793Z,101098.98
2019-01-18T04:08:36.526Z,101105.30
2019-01-18T04:11:06.975Z,101109.59
2019-01-18T04:13:37.448Z,101107.22
2019-01-18T04:16:08.018Z,101104.58
2019-01-18T04:18:38.726Z,101109.23
2019-01-18T04:21:09.152Z,101109.11
2019-01-18T04:23:39.562Z,101116.71
2019-01-18T04:26:10.317Z,101120.05
2019-01-18T04:28:41.075Z,101121.71
2019-01-18T04:31:11.848Z,101122.02
2019-01-18T04:33:42.577Z,101127.52
2019-01-18T04:36:13.005Z,101128.36
2019-01-18T04:38:43.467Z,101127.13
2019-01-18T04:41:13.822Z,101132.92
2019-01-18T04:43:44.703Z,101125.17
2019-01-18T04:46:15.489Z,101127.64
2019-01-18T04:48:45.964Z,101132.19
2019-01-18T04:51:16.383Z,101132.48
2019-01-18T04:53:46.885Z,101138.08
2019-01-18T04:56:17.328Z,101141.63
2019-01-18T04:58:47.839Z,101142.95
2019-01-18T05:01:18.601Z,101142.52
2019-01-18T05:03:48.940Z,101137.40
2019-01-18T05:06:19.323Z,101142.09
2019-01-18T05:08:49.821Z,101138.17
2019-01-18T05:11:20.165Z,101145.80
2019-01-18T05:13:50.566Z,101145.36
2019-01-18T05:16:21.263Z,101147.89
2019-01-18T05:18:51.679Z,101149.19
2019-01-18T05:21:22.122Z,101146.25
2019-01-18T05:23:52.517Z,101154.28
2019-01-18T05:26:22.893Z,101156.86
2019-01-18T05:28:53.377Z,101157.12
2019-01-18T05:31:23.884Z,101150.55
2019-01-18T05:33:54.147Z,101166.66
2019-01-18T05:36:24.600Z,101169.19
2019-01-18T05:38:55.201Z,101168.31
2019-01-18T05:41:25.873Z,101170.97
2019-01-18T05:43:56.550Z,101185.81
2019-01-18T05:46:27.284Z,101188.78
2019-01-18T05:48:57.720Z,101201.04
2019-01-18T05:51:28.226Z,101207.13
2019-01-18T05:53:58.694Z,101215.50
2019-01-18T05:56:29.396Z,101217.67
2019-01-18T05:59:00.094Z,101216.80
2019-01-18T06:01:30.949Z,101222.72
2019-01-18T06:04:01.407Z,101227.53
2019-01-18T06:06:31.963Z,101231.16
2019-01-18T06:09:02.667Z,101239.55
2019-01-18T06:11:33.331Z,101242.66
2019-01-18T06:14:03.785Z,101254.30
2019-01-18T06:16:34.387Z,101251.36
2019-01-18T06:19:05.399Z,101252.31
2019-01-18T06:21:35.925Z,101248.52
2019-01-18T06:24:06.810Z,101254.61
2019-01-18T06:26:37.496Z,101251.17
2019-01-18T06:29:08.300Z,101249.06
2019-01-18T06:31:39.186Z,101235.80
2019-01-18T06:34:09.735Z,101236.66
2019-01-18T06:36:40.305Z,101242.08
2019-01-18T06:39:11.085Z,101248.32
2019-01-18T06:41:48.496Z,101246.10
2019-01-18T06:44:19.286Z,101253.67
2019-01-18T06:46:49.676Z,101258.30
2019-01-18T06:49:20.383Z,101262.05
2019-01-18T06:51:51.399Z,101266.48
2019-01-18T06:54:22.448Z,101276.63
2019-01-18T06:56:53.540Z,101285.63
2019-01-18T06:59:24.276Z,101284.84
2019-01-18T07:01:55.684Z,101289.58
2019-01-18T07:04:26.417Z,101293.02
2019-01-18T07:06:57.518Z,101291.06
2019-01-18T07:09:28.125Z,101291.90
2019-01-18T07:11:59.572Z,101290.30
2019-01-18T07:14:30.145Z,101292.88
2019-01-18T07:17:00.903Z,101287.25
2019-01-18T07:19:31.448Z,101294.89
2019-01-18T07:22:01.970Z,101296.02
2019-01-18T07:24:32.768Z,101300.19
2019-01-18T07:27:03.423Z,101300.19
2019-01-18T07:29:33.956Z,101301.56
2019-01-18T07:32:04.653Z,101300.64
2019-01-18T07:34:35.517Z,101301.97
2019-01-18T07:37:06.304Z,101303.64
2019-01-18T07:39:36.887Z,101305.02
2019-01-18T07:42:07.690Z,101304.17
2019-01-18T07:44:38.177Z,101305.53
2019-01-18T07:47:09.037Z,101313.28
2019-01-18T07:49:39.614Z,101318.53
2019-01-18T07:52:10.173Z,101318.86
2019-01-18T07:54:40.842Z,101320.24
2019-01-18T07:57:11.532Z,101321.60
2019-01-18T07:59:42.084Z,101324.13
2019-01-18T08:02:12.557Z,101330.94
2019-01-18T08:04:43.270Z,101328.48
2019-01-18T08:07:14.011Z,101329.76
2019-01-18T08:09:44.808Z,101335.39
2019-01-18T08:12:15.415Z,101334.70
2019-01-18T08:14:46.682Z,101336.28
2019-01-18T08:17:17.578Z,101343.94
2019-01-18T08:19:48.148Z,101348.63
2019-01-18T08:22:18.836Z,101346.81
2019-01-18T08:24:49.339Z,101349.75
2019-01-18T08:27:20.021Z,101348.19
2019-01-18T08:29:50.394Z,101348.81
2019-01-18T08:32:20.772Z,101354.74
2019-01-18T08:34:51.478Z,101360.03
2019-01-18T08:37:21.941Z,101355.37
2019-01-18T08:39:52.180Z,101366.41
2019-01-18T08:42:22.626Z,101366.99
2019-01-18T08:44:53.013Z,101372.98
2019-01-18T08:47:23.537Z,101371.16
2019-01-18T08:49:53.973Z,101376.94
2019-01-18T08:52:24.451Z,101385.02
2019-01-18T08:54:55.083Z,101380.94
2019-01-18T08:57:25.504Z,101382.34
2019-01-18T08:59:56.003Z,101387.67
2019-01-18T09:02:26.432Z,101392.66
2019-01-18T09:04:56.910Z,101398.84
2019-01-18T09:07:28.358Z,101398.57
2019-01-18T09:09:58.731Z,101400.70
2019-01-18T09:12:29.419Z,101407.38
2019-01-18T09:14:59.869Z,101415.19
2019-01-18T09:17:30.584Z,101417.14
2019-01-18T09:20:00.957Z,101415.94
2019-01-18T09:22:31.409Z,101413.30
2019-01-18T09:25:02.141Z,101424.45
2019-01-18T09:27:32.870Z,101425.02
2019-01-18T09:30:03.374Z,101434.05
2019-01-18T09:32:34.094Z,101428.62
2019-01-18T09:35:05.483Z,101438.95
2019-01-18T09:37:35.887Z,101435.71
2019-01-18T09:40:10.156Z,101433.28
2019-01-18T09:42:40.652Z,101438.98
2019-01-18T09:45:12.456Z,101440.90
2019-01-18T09:47:42.968Z,101440.70
2019-01-18T09:50:17.130Z,101448.01
2019-01-18T09:52:47.919Z,101444.65
2019-01-18T09:55:18.341Z,101448.97
2019-01-18T09:57:48.830Z,101454.19
2019-01-18T10:00:34.627Z,101460.18
2019-01-18T10:03:05.312Z,101462.87
2019-01-18T10:05:36.106Z,101467.01
2019-01-18T10:08:09.966Z,101467.73
2019-01-18T10:10:40.864Z,101462.20
2019-01-18T10:13:11.330Z,101465.36
2019-01-18T10:15:46.780Z,101470.70
2019-01-18T10:18:17.694Z,101466.42
2019-01-18T10:20:48.131Z,101466.69
2019-01-18T10:23:18.607Z,101468.70
2019-01-18T10:25:49.028Z,101469.15
2019-01-18T10:28:19.736Z,101475.93
2019-01-18T10:30:50.488Z,101474.32
2019-01-18T10:33:21.094Z,101476.77
2019-01-18T10:35:51.519Z,101473.08
2019-01-18T10:38:21.894Z,101472.30
2019-01-18T10:40:52.254Z,101477.05
2019-01-18T10:43:22.688Z,101478.84
2019-01-18T10:45:53.421Z,101476.69
2019-01-18T10:48:24.203Z,101475.78
2019-01-18T10:50:54.628Z,101479.23
2019-01-18T10:53:25.048Z,101479.19
2019-01-18T10:55:55.932Z,101477.47
2019-01-18T10:58:26.390Z,101475.34
2019-01-18T11:00:56.855Z,101471.52
2019-01-18T11:03:27.616Z,101477.97
2019-01-18T11:05:58.059Z,101489.59
2019-01-18T11:08:28.784Z,101483.14
2019-01-18T11:10:59.090Z,101482.30
2019-01-18T11:13:29.528Z,101478.41
2019-01-18T11:15:59.996Z,101474.12
2019-01-18T11:18:30.436Z,101477.54
2019-01-18T11:21:14.053Z,101473.66
2019-01-18T11:23:44.756Z,101472.73
2019-01-18T11:26:15.460Z,101461.97
2019-01-18T11:28:46.213Z,101468.28
2019-01-18T11:31:16.695Z,101461.48
2019-01-18T11:33:47.123Z,101456.30
2019-01-18T11:36:17.526Z,101454.61
2019-01-18T11:38:47.966Z,101447.34
2019-01-18T11:41:18.404Z,101450.75
2019-01-18T11:43:48.905Z,101452.41
2019-01-18T11:46:19.532Z,101453.56
2019-01-18T11:48:50.433Z,101451.43
2019-01-18T11:51:21.217Z,101448.89
2019-01-18T11:53:51.598Z,101448.19
2019-01-18T11:56:22.050Z,101452.52
2019-01-18T11:58:52.531Z,101444.24
2019-01-18T12:01:22.967Z,101443.73
2019-01-18T12:03:53.378Z,101445.72
2019-01-18T12:06:24.053Z,101443.65
2019-01-18T12:08:54.497Z,101441.84
2019-01-18T12:11:25.307Z,101437.16
2019-01-18T12:13:55.775Z,101439.23
2019-01-18T12:16:26.501Z,101437.09
2019-01-18T12:18:57.470Z,101440.73
2019-01-18T12:21:28.128Z,101442.52
2019-01-18T12:23:58.809Z,101439.95
2019-01-18T12:26:29.262Z,101436.05
2019-01-18T12:28:59.738Z,101433.89
2019-01-18T12:31:30.248Z,101430.98
2019-01-18T12:34:00.741Z,101422.66
2019-01-18T12:36:31.184Z,101423.59
2019-01-18T12:39:01.630Z,101416.57
2019-01-18T12:41:32.011Z,101418.85
2019-01-18T12:44:02.480Z,101418.00
2019-01-18T12:46:32.946Z,101412.92
2019-01-18T12:49:03.609Z,101414.67
2019-01-18T12:51:34.282Z,101405.19
2019-01-18T12:54:05.115Z,101404.58
2019-01-18T12:56:35.726Z,101404.75
2019-01-18T12:59:06.319Z,101402.59
2019-01-18T13:01:37.166Z,101402.50
2019-01-18T13:04:08.335Z,101401.19
2019-01-18T13:06:38.909Z,101402.34
2019-01-18T13:09:09.844Z,101402.06
2019-01-18T13:11:40.409Z,101398.98
2019-01-18T13:14:11.620Z,101398.81
2019-01-18T13:16:48.211Z,101397.15
2019-01-18T13:19:24.851Z,101399.08
2019-01-18T13:21:55.354Z,101397.25
2019-01-18T13:24:25.970Z,101402.78
2019-01-18T13:26:56.667Z,101401.27
2019-01-18T13:29:27.313Z,101390.05
2019-01-18T13:31:57.794Z,101401.11
2019-01-18T13:34:28.567Z,101399.96
2019-01-18T13:36:59.198Z,101401.70
2019-01-18T13:39:29.790Z,101393.11
2019-01-18T13:42:00.495Z,101407.28
2019-01-18T13:44:31.334Z,101410.30
2019-01-18T13:47:01.898Z,101410.59
2019-01-18T13:49:32.657Z,101404.05
2019-01-18T13:52:03.390Z,101410.08
2019-01-18T13:54:34.308Z,101407.93
2019-01-18T13:57:04.943Z,101408.78
2019-01-18T13:59:35.612Z,101416.44
2019-01-18T14:02:06.266Z,101416.83
2019-01-18T14:04:37.029Z,101420.53
2019-01-18T14:07:07.658Z,101415.25
2019-01-18T14:09:38.224Z,101414.69
2019-01-18T14:12:08.890Z,101414.09
2019-01-18T14:14:39.574Z,101412.30
2019-01-18T14:17:10.204Z,101410.06
2019-01-18T14:19:41.101Z,101412.05
2019-01-18T14:22:11.675Z,101411.99
2019-01-18T14:24:42.268Z,101414.94
2019-01-18T14:27:12.706Z,101407.98
2019-01-18T14:29:43.177Z,101409.59
2019-01-18T14:32:13.917Z,101412.57
2019-01-18T14:34:44.643Z,101402.13
2019-01-18T14:37:15.411Z,101399.98
2019-01-18T14:39:45.851Z,101398.22
2019-01-18T14:42:16.284Z,101398.00
2019-01-18T14:44:46.788Z,101391.87
2019-01-18T14:47:17.513Z,101395.66
2019-01-18T14:49:47.948Z,101394.31
2019-01-18T14:52:18.392Z,101395.20
2019-01-18T14:54:48.809Z,101394.73
2019-01-18T14:57:19.278Z,101391.64
2019-01-18T14:59:49.757Z,101393.39
2019-01-18T15:02:20.108Z,101392.16
2019-01-18T15:04:50.792Z,101401.55
2019-01-18T15:07:21.244Z,101398.34
2019-01-18T15:09:51.637Z,101400.30
2019-01-18T15:12:22.359Z,101401.09
2019-01-18T15:14:52.807Z,101397.45
2019-01-18T15:17:23.194Z,101402.61
2019-01-18T15:19:53.618Z,101403.68
2019-01-18T15:22:24.116Z,101404.97
2019-01-18T15:24:54.568Z,101409.27
2019-01-18T15:27:25.255Z,101401.35
2019-01-18T15:29:56.023Z,101407.70
2019-01-18T15:32:26.420Z,101409.70
2019-01-18T15:34:57.283Z,101409.72
2019-01-18T15:37:27.835Z,101412.44
2019-01-18T15:39:58.248Z,101407.73
2019-01-18T15:42:28.689Z,101404.16
2019-01-18T15:45:19.107Z,101404.97
2019-01-18T15:48:08.825Z,101400.17
2019-01-18T15:50:51.413Z,101397.05
2019-01-18T15:53:41.381Z,101403.52
2019-01-18T15:56:23.916Z,101399.63
2019-01-18T16:02:20.254Z,101399.52
2019-01-18T16:05:10.189Z,101390.47
2019-01-18T16:07:59.930Z,101393.77
2019-01-18T16:10:42.204Z,101389.84
2019-01-18T16:13:31.950Z,101397.49
2019-01-18T16:16:19.922Z,101394.41
2019-01-18T16:19:09.747Z,101397.73
2019-01-18T16:21:40.249Z,101392.99
2019-01-18T16:24:48.669Z,101393.02
2019-01-18T16:27:38.326Z,101395.89
2019-01-18T16:30:21.098Z,101391.55
2019-01-18T16:33:10.601Z,101382.86
2019-01-18T16:35:41.115Z,101391.37
2019-01-18T16:38:12.540Z,101385.86
2019-01-18T16:40:43.290Z,101389.52
2019-01-18T16:43:21.492Z,101390.80
2019-01-18T16:45:52.167Z,101398.45
2019-01-18T16:48:22.625Z,101397.25
2019-01-18T16:50:53.367Z,101397.13
2019-01-18T16:53:23.906Z,101399.73
2019-01-18T16:55:54.248Z,101399.25
2019-01-18T16:58:24.717Z,101385.50
2019-01-18T17:00:56.975Z,101391.96
2019-01-18T17:03:30.606Z,101392.27
2019-01-18T17:05:59.637Z,101389.79
2019-01-18T17:08:30.372Z,101390.90
2019-01-18T17:11:00.810Z,101390.03
2019-01-18T17:13:36.264Z,101387.44
2019-01-18T17:16:07.276Z,101389.55
2019-01-18T17:18:38.301Z,101386.19
2019-01-18T17:21:09.159Z,101393.34
2019-01-18T17:23:39.616Z,101389.89
2019-01-18T17:26:10.270Z,101392.90
2019-01-18T17:28:41.203Z,101390.78
2019-01-18T17:31:11.953Z,101399.26
2019-01-18T17:33:42.511Z,101396.31
2019-01-18T17:36:57.354Z,101383.43
2019-01-18T17:40:18.597Z,101392.80
2019-01-18T17:43:46.161Z,101394.08
2019-01-18T17:47:39.574Z,101390.58
2019-01-18T17:51:11.247Z,101390.13
2019-01-18T17:54:10.773Z,101394.47
2019-01-18T17:57:03.871Z,101397.80
2019-01-18T18:00:26.036Z,101389.53
2019-01-18T18:03:44.401Z,101388.77
2019-01-18T18:06:37.970Z,101392.50
2019-01-18T18:09:22.103Z,101392.98
2019-01-18T18:12:32.501Z,101391.70
2019-01-18T18:16:12.408Z,101386.48
2019-01-18T18:19:18.577Z,101387.38
2019-01-18T18:23:07.782Z,101388.81
2019-01-18T18:26:20.053Z,101389.59
2019-01-18T18:29:29.922Z,101388.33
2019-01-18T18:32:59.987Z,101389.44
2019-01-18T18:36:04.844Z,101396.34
2019-01-18T18:39:23.103Z,101391.59
2019-01-18T18:42:58.659Z,101389.31
2019-01-18T18:46:06.294Z,101390.92
2019-01-18T18:49:12.417Z,101389.64
2019-01-18T18:52:48.243Z,101386.28
2019-01-18T18:56:05.948Z,101380.30
2019-01-18T18:59:25.539Z,101379.02
2019-01-18T19:03:04.949Z,101370.42
2019-01-18T19:06:32.073Z,101369.53
2019-01-18T19:09:35.139Z,101364.38
2019-01-18T19:13:08.818Z,101363.15
2019-01-18T19:16:25.407Z,101369.04
2019-01-18T19:19:40.762Z,101363.92
2019-01-18T19:23:03.077Z,101372.00
2019-01-18T19:26:15.963Z,101360.48
2019-01-18T19:30:01.366Z,101365.17
2019-01-18T19:33:15.050Z,101367.68
2019-01-18T19:37:15.244Z,101364.61
2019-01-18T19:40:32.125Z,101367.68
2019-01-18T19:43:44.128Z,101363.44
2019-01-18T19:47:15.862Z,101368.13
2019-01-18T19:50:43.436Z,101367.84
2019-01-18T19:53:28.059Z,101366.09
2019-01-18T19:57:00.132Z,101358.41
2019-01-18T20:00:26.517Z,101358.83
2019-01-18T20:03:52.870Z,101356.33
2019-01-18T20:07:29.066Z,101349.05
2019-01-18T20:11:08.673Z,101352.48
2019-01-18T20:14:52.864Z,101354.55
2019-01-18T20:18:01.646Z,101353.32
2019-01-18T20:20:49.612Z,101348.97
2019-01-18T20:24:14.719Z,101347.28
2019-01-18T20:27:42.438Z,101353.56
2019-01-18T20:31:10.131Z,101350.20
2019-01-18T20:34:38.076Z,101349.23
2019-01-18T20:37:39.477Z,101346.72
2019-01-18T20:41:07.207Z,101344.55
2019-01-18T20:44:21.662Z,101352.20
2019-01-18T20:47:34.077Z,101352.13
2019-01-18T20:50:26.045Z,101356.06
2019-01-18T20:53:48.638Z,101348.77
2019-01-18T20:57:03.725Z,101356.03
2019-01-18T20:59:59.247Z,101353.86
2019-01-18T21:03:10.069Z,101356.03
2019-01-18T21:06:55.690Z,101356.14
2019-01-18T21:10:39.397Z,101353.08
2019-01-18T21:13:39.638Z,101351.81
2019-01-18T21:17:07.384Z,101354.98
2019-01-18T21:20:35.524Z,101363.05
2019-01-18T21:23:36.864Z,101356.65
2019-01-18T21:26:38.768Z,101355.37
2019-01-18T21:29:52.280Z,101354.09
2019-01-18T21:36:27.024Z,101354.55
2019-01-18T21:39:28.449Z,101349.83
2019-01-18T21:42:51.059Z,101351.53
2019-01-18T21:58:54.280Z,101349.64
2019-01-18T22:02:38.687Z,101348.48
2019-01-18T22:06:01.308Z,101346.70
2019-01-18T22:09:27.063Z,101347.08
2019-01-18T22:13:08.849Z,101346.41
2019-01-18T22:17:07.768Z,101346.80
2019-01-18T22:20:39.051Z,101351.48
2019-01-18T22:23:57.246Z,101356.14
2019-01-18T22:27:38.354Z,101354.88
2019-01-18T22:30:58.913Z,101358.23
2019-01-18T22:33:46.763Z,101358.23
2019-01-18T22:37:18.746Z,101358.78
2019-01-18T22:40:53.833Z,101362.46
2019-01-18T22:43:42.896Z,101358.70
2019-01-18T22:47:11.962Z,101355.68
2019-01-18T22:50:35.283Z,101365.81
2019-01-18T22:54:20.499Z,101367.95
2019-01-18T22:57:48.773Z,101368.83
2019-01-18T23:01:15.126Z,101357.32
2019-01-18T23:04:42.868Z,101357.30
2019-01-18T23:08:02.109Z,101359.06
2019-01-18T23:11:29.887Z,101354.19
2019-01-18T23:14:21.071Z,101354.55
2019-01-18T23:18:24.572Z,101346.47
2019-01-18T23:21:57.746Z,101356.52
2019-01-18T23:24:44.215Z,101353.59
2019-01-18T23:28:19.142Z,101356.54
2019-01-18T23:31:16.252Z,101345.63
2019-01-18T23:34:27.235Z,101349.84
2019-01-18T23:37:25.482Z,101352.48
2019-01-18T23:40:39.890Z,101351.59
2019-01-18T23:44:05.255Z,101343.13
2019-01-18T23:47:44.615Z,101344.70
2019-01-18T23:50:56.802Z,101345.03
2019-01-18T23:54:26.234Z,101346.99
2019-01-18T23:58:13.061Z,101336.31
